Time;durP1;ratioP1;P1;durP2;ratioP2;P2;SDS_P1;SDS_P2;PMS_P1;PMS_P2;Temp;Humidity;BMP_temperature;BMP_pressure;BME280_temperature;BME280_humidity;BME280_pressure;Samples;Min_cycle;Max_cycle;Signal;HPM_P1;HPM_P2
2022/02/08 00:00:12;;;;;;;13.95;4.53;;;7.60;99.90;;;;;;2124711;27;20110;-70
2022/02/08 00:01:13;;;;;;;15.43;4.35;;;7.60;99.90;;;;;;2121199;27;20028;-70
2022/02/08 00:02:15;;;;;;;13.98;4.07;;;7.60;99.90;;;;;;2120528;27;20021;-70
2022/02/08 00:03:18;;;;;;;11.45;4.15;;;7.60;99.90;;;;;;2121061;27;20095;-70
2022/02/08 00:04:18;;;;;;;13.30;4.07;;;7.70;99.90;;;;;;2116478;27;20488;-70
2022/02/08 00:05:21;;;;;;;11.00;3.45;;;7.70;99.90;;;;;;2120980;27;20568;-70
2022/02/08 00:06:37;;;;;;;8.85;3.40;;;7.70;99.90;;;;;;2124638;27;20355;-70
2022/02/08 00:07:38;;;;;;;13.20;3.33;;;7.70;99.90;;;;;;2121809;27;20012;-70
2022/02/08 00:08:38;;;;;;;12.95;3.80;;;7.70;99.90;;;;;;2123350;27;20019;-70
2022/02/08 00:09:39;;;;;;;11.52;3.90;;;7.70;99.90;;;;;;2116538;27;20012;-70
2022/02/08 00:10:40;;;;;;;15.18;4.13;;;7.70;99.90;;;;;;2121458;27;20364;-70
2022/02/08 00:11:41;;;;;;;11.82;4.20;;;7.80;99.90;;;;;;2121421;27;20019;-70
2022/02/08 00:12:42;;;;;;;21.00;5.28;;;7.70;99.90;;;;;;2117462;27;20475;-70
2022/02/08 00:13:42;;;;;;;13.43;3.85;;;7.70;99.90;;;;;;2125516;27;20415;-70
2022/02/08 00:14:43;;;;;;;17.13;4.38;;;7.80;99.90;;;;;;2126034;27;20457;-70
2022/02/08 00:15:43;;;;;;;14.15;4.15;;;7.80;99.90;;;;;;2120917;27;20034;-70
2022/02/08 00:16:44;;;;;;;11.13;3.83;;;7.80;99.90;;;;;;2123072;27;20023;-70
2022/02/08 00:17:45;;;;;;;13.75;4.45;;;7.80;99.90;;;;;;2117322;27;20028;-70
2022/02/08 00:18:45;;;;;;;14.98;4.13;;;7.80;99.90;;;;;;2121493;27;20445;-70
2022/02/08 00:19:46;;;;;;;11.02;3.80;;;7.80;99.90;;;;;;2119695;27;20098;-70
2022/02/08 00:20:47;;;;;;;12.30;3.78;;;7.80;99.90;;;;;;2117985;27;20391;-70
2022/02/08 00:21:48;;;;;;;14.23;4.13;;;7.80;99.90;;;;;;2125682;27;20077;-70
2022/02/08 00:22:48;;;;;;;11.80;3.97;;;7.80;99.90;;;;;;2117521;27;20090;-70
2022/02/08 00:23:49;;;;;;;13.88;4.68;;;7.80;99.90;;;;;;2116219;27;20023;-70
2022/02/08 00:24:49;;;;;;;18.23;3.85;;;7.80;99.90;;;;;;2121980;27;20022;-70
2022/02/08 00:25:50;;;;;;;17.70;4.30;;;7.90;99.90;;;;;;2117798;27;20039;-70
2022/02/08 00:26:50;;;;;;;10.30;4.22;;;7.90;99.90;;;;;;2116252;27;20086;-70
2022/02/08 00:27:51;;;;;;;11.00;3.92;;;7.90;99.90;;;;;;2122786;27;20030;-71
2022/02/08 00:28:53;;;;;;;14.60;4.18;;;7.90;99.90;;;;;;2118496;27;20031;-70
2022/02/08 00:29:53;;;;;;;13.88;3.95;;;7.90;99.90;;;;;;2125342;27;20027;-70
2022/02/08 00:30:54;;;;;;;11.50;3.47;;;7.90;99.90;;;;;;2118420;27;20027;-71
2022/02/08 00:31:55;;;;;;;14.90;3.65;;;7.90;99.90;;;;;;2120105;27;20102;-70
2022/02/08 00:32:55;;;;;;;19.27;4.20;;;7.90;99.90;;;;;;2122189;27;20031;-70
2022/02/08 00:33:56;;;;;;;20.58;4.32;;;7.90;99.90;;;;;;2116636;27;20027;-70
2022/02/08 00:34:56;;;;;;;14.25;4.00;;;7.90;99.90;;;;;;2120724;27;20410;-70
2022/02/08 00:35:57;;;;;;;19.77;4.63;;;7.90;99.90;;;;;;2118542;27;20024;-70
2022/02/08 00:36:57;;;;;;;15.85;4.60;;;7.90;99.90;;;;;;2122684;27;20651;-70
2022/02/08 00:37:58;;;;;;;18.58;4.45;;;8.00;99.90;;;;;;2123122;27;20050;-70
2022/02/08 00:38:58;;;;;;;14.25;3.88;;;7.90;99.90;;;;;;2118769;27;20082;-70
2022/02/08 00:39:59;;;;;;;15.82;4.88;;;7.90;99.90;;;;;;2123519;27;20106;-70
2022/02/08 00:41:01;;;;;;;16.92;4.43;;;7.90;99.90;;;;;;2119427;27;20625;-70
2022/02/08 00:42:06;;;;;;;15.98;4.68;;;7.90;99.90;;;;;;2118961;27;20111;-70
2022/02/08 00:43:08;;;;;;;13.45;3.85;;;7.90;99.90;;;;;;2117960;27;20020;-70
2022/02/08 00:44:17;;;;;;;11.88;4.20;;;7.90;99.90;;;;;;2116886;27;20038;-70
2022/02/08 00:46:36;;;;;;;11.95;3.78;;;7.90;99.90;;;;;;2121920;27;20549;-70
2022/02/08 00:47:41;;;;;;;18.30;4.47;;;7.90;99.90;;;;;;2123426;27;20027;-70
2022/02/08 00:48:48;;;;;;;10.93;4.55;;;7.90;99.90;;;;;;2116878;27;20072;-70
2022/02/08 00:49:49;;;;;;;14.40;4.68;;;7.90;99.90;;;;;;2119106;27;20015;-70
2022/02/08 00:50:50;;;;;;;12.80;3.70;;;7.90;99.90;;;;;;2119409;27;20068;-70
2022/02/08 00:51:52;;;;;;;13.23;3.70;;;7.90;99.90;;;;;;2114833;27;20038;-70
2022/02/08 00:52:52;;;;;;;15.68;4.82;;;7.90;99.90;;;;;;2116831;27;20049;-70
2022/02/08 00:53:54;;;;;;;11.68;3.45;;;7.90;99.90;;;;;;2124985;27;20027;-70
2022/02/08 00:54:54;;;;;;;14.00;3.80;;;7.90;99.90;;;;;;2120407;27;20390;-70
2022/02/08 00:55:55;;;;;;;15.35;4.15;;;7.90;99.90;;;;;;2122290;27;20027;-70
2022/02/08 00:56:55;;;;;;;11.93;3.88;;;7.90;99.90;;;;;;2119846;27;20035;-70
2022/02/08 00:57:56;;;;;;;15.23;4.75;;;7.90;99.90;;;;;;2123878;27;20027;-70
2022/02/08 00:58:56;;;;;;;18.50;4.43;;;7.90;99.90;;;;;;2119890;27;20463;-70
2022/02/08 00:59:57;;;;;;;17.48;4.43;;;7.90;99.90;;;;;;2116628;27;20028;-70
2022/02/08 01:00:58;;;;;;;12.60;3.90;;;8.00;99.90;;;;;;2118995;27;20031;-70
2022/02/08 01:01:59;;;;;;;16.30;4.35;;;8.00;99.90;;;;;;2124767;27;20743;-70
2022/02/08 01:02:59;;;;;;;9.93;3.33;;;8.00;99.90;;;;;;2121229;27;20509;-70
2022/02/08 01:04:00;;;;;;;14.25;4.13;;;8.00;99.90;;;;;;2123282;27;20104;-70
2022/02/08 01:05:03;;;;;;;14.35;3.80;;;8.00;99.90;;;;;;2117581;27;20019;-70
2022/02/08 01:06:06;;;;;;;16.05;4.25;;;8.00;99.90;;;;;;2117904;27;20048;-70
2022/02/08 01:07:08;;;;;;;14.07;4.07;;;8.00;99.90;;;;;;2120372;27;20016;-70
2022/02/08 01:08:09;;;;;;;15.40;4.18;;;8.00;99.90;;;;;;2118822;27;20015;-70
2022/02/08 01:09:18;;;;;;;16.92;4.63;;;8.00;99.90;;;;;;2120206;27;20020;-70
2022/02/08 01:10:22;;;;;;;14.60;4.43;;;8.00;99.90;;;;;;2123291;27;20014;-70
2022/02/08 01:11:23;;;;;;;17.65;4.35;;;8.00;99.90;;;;;;2124739;27;20023;-70
2022/02/08 01:12:25;;;;;;;12.77;3.97;;;8.00;99.90;;;;;;2121850;27;20019;-70
2022/02/08 01:13:26;;;;;;;14.90;3.83;;;8.00;99.90;;;;;;2119586;27;20517;-70
2022/02/08 01:14:26;;;;;;;16.65;4.10;;;8.00;99.90;;;;;;2121787;27;20458;-70
2022/02/08 01:15:27;;;;;;;15.23;4.72;;;8.00;99.90;;;;;;2120478;27;20027;-70
2022/02/08 01:16:29;;;;;;;21.77;5.30;;;8.00;99.90;;;;;;2127645;27;20101;-70
2022/02/08 01:17:30;;;;;;;14.23;4.55;;;8.00;99.90;;;;;;2122526;27;20034;-70
2022/02/08 01:18:33;;;;;;;14.77;4.25;;;8.00;99.90;;;;;;2123919;27;20023;-70
2022/02/08 01:19:36;;;;;;;14.95;4.50;;;8.00;99.90;;;;;;2124519;27;20358;-70
2022/02/08 01:20:38;;;;;;;22.55;5.20;;;8.00;99.90;;;;;;2117634;27;20722;-70
2022/02/08 01:21:38;;;;;;;14.35;4.78;;;8.00;99.90;;;;;;2128996;27;20042;-70
2022/02/08 01:22:41;;;;;;;20.48;5.10;;;8.00;99.90;;;;;;2119194;27;20027;-70
2022/02/08 01:23:41;;;;;;;15.70;4.70;;;8.00;99.90;;;;;;2123279;27;20130;-70
2022/02/08 01:24:46;;;;;;;16.52;5.03;;;8.00;99.90;;;;;;2127369;27;20108;-70
2022/02/08 01:25:51;;;;;;;12.52;4.18;;;8.00;99.90;;;;;;2117850;27;20049;-70
2022/02/08 01:27:02;;;;;;;21.00;5.95;;;8.00;99.90;;;;;;2122458;27;20382;-70
2022/02/08 01:29:28;;;;;;;18.70;5.03;;;8.00;99.90;;;;;;2124620;27;20045;-70
2022/02/08 01:30:41;;;;;;;21.75;5.32;;;8.00;99.90;;;;;;2117684;27;20018;-70
2022/02/08 01:31:42;;;;;;;13.68;4.93;;;8.00;99.90;;;;;;2120913;27;20023;-70
2022/02/08 01:33:02;;;;;;;20.13;5.38;;;8.00;99.90;;;;;;2127251;27;20023;-70
2022/02/08 01:35:30;;;;;;;17.98;5.70;;;8.00;99.90;;;;;;2124939;27;20069;-70
2022/02/08 01:36:45;;;;;;;19.38;5.80;;;8.00;99.90;;;;;;2124161;27;20019;-70
2022/02/08 01:39:44;;;;;;;15.75;4.95;;;8.00;99.90;;;;;;2116869;27;20089;-70
2022/02/08 01:42:45;;;;;;;20.65;5.90;;;8.00;99.90;;;;;;2125083;27;20065;-70
2022/02/08 01:44:10;;;;;;;18.00;5.40;;;8.00;99.90;;;;;;2118256;27;20028;-70
2022/02/08 01:45:38;;;;;;;20.23;5.78;;;8.00;99.90;;;;;;2119305;27;20466;-70
2022/02/08 01:49:27;;;;;;;17.95;6.15;;;7.90;99.90;;;;;;2120422;27;20038;-70
2022/02/08 01:50:29;;;;;;;19.95;6.13;;;7.90;99.90;;;;;;2124201;27;20044;-70
2022/02/08 01:51:29;;;;;;;19.60;6.18;;;7.90;99.90;;;;;;2120284;27;20100;-70
2022/02/08 01:52:30;;;;;;;16.77;5.75;;;7.90;99.90;;;;;;2122430;27;20027;-70
2022/02/08 01:53:30;;;;;;;24.65;6.88;;;7.90;99.90;;;;;;2122391;27;20027;-70
2022/02/08 01:54:31;;;;;;;18.55;5.82;;;7.90;99.90;;;;;;2117954;27;20063;-70
2022/02/08 01:55:33;;;;;;;17.90;6.15;;;8.00;99.90;;;;;;2115508;27;20024;-70
2022/02/08 01:56:34;;;;;;;19.23;6.20;;;7.90;99.90;;;;;;2119458;27;20474;-70
2022/02/08 01:57:36;;;;;;;25.23;6.40;;;8.00;99.90;;;;;;2124053;27;20030;-70
2022/02/08 01:58:37;;;;;;;25.25;7.22;;;8.00;99.90;;;;;;2123641;27;20042;-70
2022/02/08 01:59:37;;;;;;;18.10;6.10;;;8.00;99.90;;;;;;2119198;27;20080;-70
2022/02/08 02:00:38;;;;;;;23.60;6.10;;;7.90;99.90;;;;;;2124253;27;20347;-70
2022/02/08 02:01:38;;;;;;;19.23;6.00;;;7.90;99.90;;;;;;2121432;27;20038;-70
2022/02/08 02:02:39;;;;;;;17.90;6.00;;;8.00;99.90;;;;;;2120210;27;20076;-70
2022/02/08 02:03:42;;;;;;;25.35;6.30;;;8.00;99.90;;;;;;2119094;27;20061;-70
2022/02/08 02:04:43;;;;;;;26.65;6.75;;;8.00;99.90;;;;;;2116025;27;20030;-70
2022/02/08 02:05:43;;;;;;;14.13;5.45;;;8.00;99.90;;;;;;2121838;27;20156;-70
2022/02/08 02:06:44;;;;;;;21.02;6.38;;;8.00;99.90;;;;;;2122883;27;20030;-70
2022/02/08 02:07:49;;;;;;;19.70;6.05;;;8.00;99.90;;;;;;2118414;27;20074;-70
2022/02/08 02:08:49;;;;;;;20.88;6.40;;;8.00;99.90;;;;;;2119980;27;20478;-70
2022/02/08 02:09:50;;;;;;;21.90;6.80;;;8.00;99.90;;;;;;2114649;27;20371;-70
2022/02/08 02:10:51;;;;;;;22.85;6.40;;;8.00;99.90;;;;;;2119497;27;20024;-70
2022/02/08 02:11:56;;;;;;;19.13;6.25;;;8.00;99.90;;;;;;2118848;27;20019;-70
2022/02/08 02:13:02;;;;;;;14.45;5.55;;;8.00;99.90;;;;;;2119420;27;20473;-70
2022/02/08 02:14:03;;;;;;;31.60;7.03;;;8.00;99.90;;;;;;2123402;27;20098;-70
2022/02/08 02:15:06;;;;;;;22.48;7.10;;;8.00;99.90;;;;;;2122912;27;20027;-70
2022/02/08 02:16:07;;;;;;;23.58;6.85;;;8.00;99.90;;;;;;2117435;27;20035;-70
2022/02/08 02:17:10;;;;;;;22.33;6.40;;;8.00;99.90;;;;;;2119974;27;20019;-70
2022/02/08 02:18:10;;;;;;;22.17;6.18;;;8.00;99.90;;;;;;2118628;27;21467;-70
2022/02/08 02:19:11;;;;;;;18.02;6.00;;;8.00;99.90;;;;;;2119695;27;20468;-70
2022/02/08 02:20:11;;;;;;;20.88;6.13;;;8.00;99.90;;;;;;2120460;27;20025;-71
2022/02/08 02:21:15;;;;;;;15.50;5.88;;;8.00;99.90;;;;;;2120449;27;20058;-70
2022/02/08 02:22:16;;;;;;;22.48;6.38;;;8.00;99.90;;;;;;2120095;27;20104;-70
2022/02/08 02:23:17;;;;;;;22.73;7.45;;;8.00;99.90;;;;;;2115966;27;20018;-70
2022/02/08 02:24:17;;;;;;;20.63;6.57;;;8.00;99.90;;;;;;2118865;27;20077;-70
2022/02/08 02:25:32;;;;;;;17.52;5.90;;;8.00;99.90;;;;;;2118228;27;20023;-70
2022/02/08 02:26:32;;;;;;;18.85;6.43;;;8.00;99.90;;;;;;2118777;27;20046;-70
2022/02/08 02:27:33;;;;;;;20.02;6.55;;;8.00;99.90;;;;;;2115903;27;20030;-70
2022/02/08 02:28:36;;;;;;;16.00;6.07;;;8.00;99.90;;;;;;2116670;27;20026;-70
2022/02/08 02:29:37;;;;;;;23.33;6.75;;;8.00;99.90;;;;;;2124074;27;20705;-70
2022/02/08 02:30:37;;;;;;;22.92;6.68;;;8.00;99.90;;;;;;2117294;27;20023;-70
2022/02/08 02:31:38;;;;;;;17.20;5.28;;;8.00;99.90;;;;;;2118829;27;20535;-71
2022/02/08 02:32:39;;;;;;;19.08;6.60;;;8.00;99.90;;;;;;2121857;27;20046;-70
2022/02/08 02:33:40;;;;;;;21.80;6.93;;;8.00;99.90;;;;;;2118035;27;20044;-70
2022/02/08 02:34:47;;;;;;;20.15;5.95;;;8.00;99.90;;;;;;2122048;27;20101;-70
2022/02/08 02:35:48;;;;;;;16.60;6.25;;;8.00;99.90;;;;;;2117436;27;20536;-70
2022/02/08 02:36:48;;;;;;;16.05;6.03;;;8.00;99.90;;;;;;2121760;27;20045;-70
2022/02/08 02:37:49;;;;;;;22.73;5.88;;;8.00;99.90;;;;;;2120881;27;20034;-70
2022/02/08 02:38:50;;;;;;;18.38;6.00;;;8.00;99.90;;;;;;2115489;27;20016;-70
2022/02/08 02:39:50;;;;;;;18.95;6.18;;;8.00;99.90;;;;;;2122367;27;20023;-70
2022/02/08 02:40:54;;;;;;;17.88;6.55;;;8.00;99.90;;;;;;2120073;27;20077;-70
2022/02/08 02:41:54;;;;;;;21.92;5.90;;;8.10;99.90;;;;;;2118327;27;20031;-70
2022/02/08 02:42:55;;;;;;;24.27;6.68;;;8.00;99.90;;;;;;2121212;27;20051;-70
2022/02/08 02:43:55;;;;;;;21.20;6.43;;;8.10;99.90;;;;;;2115331;27;20092;-70
2022/02/08 02:44:56;;;;;;;21.77;6.65;;;8.00;99.90;;;;;;2122690;27;20382;-70
2022/02/08 02:46:00;;;;;;;15.85;6.32;;;8.00;99.90;;;;;;2122154;27;20027;-70
2022/02/08 02:47:00;;;;;;;15.23;5.57;;;8.00;99.90;;;;;;2118731;27;20076;-70
2022/02/08 02:48:01;;;;;;;17.05;6.22;;;8.00;99.90;;;;;;2119170;27;20084;-70
2022/02/08 02:49:01;;;;;;;20.33;5.55;;;8.00;99.90;;;;;;2115622;27;20084;-70
2022/02/08 02:50:04;;;;;;;16.58;5.72;;;8.00;99.90;;;;;;2119214;27;20110;-70
2022/02/08 02:51:05;;;;;;;16.05;5.57;;;8.00;99.90;;;;;;2118367;27;20106;-70
2022/02/08 02:52:07;;;;;;;20.10;5.80;;;8.00;99.90;;;;;;2119392;27;20472;-70
2022/02/08 02:53:07;;;;;;;15.02;5.80;;;8.00;99.90;;;;;;2124628;27;20015;-70
2022/02/08 02:54:19;;;;;;;16.90;5.97;;;8.00;99.90;;;;;;2123013;27;20027;-70
2022/02/08 02:55:20;;;;;;;11.65;4.93;;;8.00;99.90;;;;;;2118411;27;20034;-70
2022/02/08 02:56:20;;;;;;;16.13;5.80;;;8.00;99.90;;;;;;2117092;27;20034;-70
2022/02/08 02:57:24;;;;;;;16.38;5.75;;;8.00;99.90;;;;;;2118274;27;20355;-70
2022/02/08 02:58:29;;;;;;;20.30;5.07;;;8.00;99.90;;;;;;2119989;27;20022;-70
2022/02/08 02:59:33;;;;;;;13.18;5.03;;;8.00;99.90;;;;;;2120120;27;20025;-70
2022/02/08 03:00:38;;;;;;;15.15;5.32;;;8.00;99.90;;;;;;2123820;27;20042;-70
2022/02/08 03:02:08;;;;;;;12.18;4.85;;;8.00;99.90;;;;;;2127220;27;20051;-70
2022/02/08 03:04:33;;;;;;;14.85;5.50;;;8.00;99.90;;;;;;2117495;27;20486;-71
2022/02/08 03:17:37;;;;;;;12.27;4.35;;;7.90;99.90;;;;;;2121395;27;20031;-71
2022/02/08 03:18:40;;;;;;;8.48;5.00;;;7.80;99.90;;;;;;2123205;27;20060;-71
2022/02/08 03:19:40;;;;;;;9.65;4.32;;;7.80;99.90;;;;;;2119295;27;20085;-71
2022/02/08 03:20:41;;;;;;;9.20;4.88;;;7.80;99.90;;;;;;2117657;27;20106;-71
2022/02/08 03:21:41;;;;;;;9.57;4.10;;;7.80;99.90;;;;;;2118366;27;20027;-71
2022/02/08 03:22:42;;;;;;;10.85;4.32;;;7.90;99.90;;;;;;2113790;27;20023;-71
2022/02/08 03:23:43;;;;;;;8.77;4.55;;;7.90;99.90;;;;;;2123721;27;20023;-71
2022/02/08 03:24:43;;;;;;;12.63;4.90;;;7.90;99.90;;;;;;2123346;27;20686;-71
2022/02/08 03:25:44;;;;;;;9.05;4.63;;;7.90;99.90;;;;;;2118282;27;20102;-71
2022/02/08 03:26:44;;;;;;;14.40;4.40;;;7.90;99.90;;;;;;2126911;27;20037;-71
2022/02/08 03:27:45;;;;;;;7.30;4.00;;;7.90;99.90;;;;;;2122335;27;20026;-71
2022/02/08 03:28:45;;;;;;;11.52;4.40;;;7.90;99.90;;;;;;2119744;27;20023;-71
2022/02/08 03:29:46;;;;;;;12.48;4.30;;;8.00;99.90;;;;;;2118658;27;20019;-71
2022/02/08 03:30:46;;;;;;;8.93;4.93;;;8.00;99.90;;;;;;2115075;27;20016;-71
2022/02/08 03:31:47;;;;;;;10.10;4.78;;;8.00;99.90;;;;;;2120953;27;20107;-71
2022/02/08 03:32:48;;;;;;;9.50;4.47;;;8.00;99.90;;;;;;2120225;27;20030;-71
2022/02/08 03:33:48;;;;;;;8.93;4.00;;;8.00;99.90;;;;;;2119933;27;20024;-71
2022/02/08 03:34:49;;;;;;;7.95;4.32;;;8.00;99.90;;;;;;2118567;27;20027;-71
2022/02/08 03:35:54;;;;;;;12.55;4.90;;;8.00;99.90;;;;;;2105785;28;20934;-71
2022/02/08 03:36:55;;;;;;;9.57;4.47;;;8.00;99.90;;;;;;2119264;27;20413;-71
2022/02/08 03:37:59;;;;;;;11.60;4.47;;;8.00;99.90;;;;;;2121094;27;20054;-71
2022/02/08 03:39:14;;;;;;;8.30;5.05;;;8.00;99.90;;;;;;2116125;27;20118;-71
2022/02/08 03:40:29;;;;;;;8.77;4.43;;;8.00;99.90;;;;;;2124465;27;20347;-71
2022/02/08 03:41:36;;;;;;;10.23;4.43;;;8.00;99.90;;;;;;2121628;27;20039;-71
2022/02/08 03:42:45;;;;;;;7.82;4.13;;;8.00;99.90;;;;;;2120262;27;20383;-71
2022/02/08 03:43:47;;;;;;;9.23;5.10;;;8.00;99.90;;;;;;2117537;27;20020;-71
2022/02/08 03:44:49;;;;;;;9.95;4.90;;;8.00;99.90;;;;;;2120092;27;20110;-71
2022/02/08 03:45:54;;;;;;;8.93;4.65;;;8.00;99.90;;;;;;2119132;27;20016;-71
2022/02/08 03:46:54;;;;;;;9.88;4.97;;;8.00;99.90;;;;;;2117923;27;20478;-71
2022/02/08 03:47:55;;;;;;;9.73;4.75;;;8.00;99.90;;;;;;2124523;27;20038;-71
2022/02/08 03:48:56;;;;;;;7.78;4.45;;;8.00;99.90;;;;;;2116797;27;21034;-71
2022/02/08 03:49:57;;;;;;;10.65;5.10;;;8.00;99.90;;;;;;2120050;27;20853;-71
2022/02/08 03:51:08;;;;;;;9.00;4.60;;;8.00;99.90;;;;;;2119913;27;20048;-71
2022/02/08 03:52:09;;;;;;;9.27;5.28;;;8.00;99.90;;;;;;2116369;27;20373;-71
2022/02/08 03:53:09;;;;;;;9.65;4.50;;;8.00;99.90;;;;;;2118318;27;20099;-71
2022/02/08 03:54:10;;;;;;;7.07;4.40;;;8.10;99.90;;;;;;2117512;27;20055;-71
2022/02/08 03:55:11;;;;;;;8.70;4.97;;;8.10;99.90;;;;;;2121930;27;20023;-71
2022/02/08 03:56:13;;;;;;;9.30;4.70;;;8.10;99.90;;;;;;2122455;27;20015;-71
2022/02/08 03:57:13;;;;;;;7.80;4.82;;;8.10;99.90;;;;;;2118353;27;20015;-71
2022/02/08 03:58:14;;;;;;;8.93;5.30;;;8.10;99.90;;;;;;2119848;27;20015;-71
2022/02/08 03:59:16;;;;;;;8.52;4.97;;;8.10;99.90;;;;;;2117943;27;20015;-71
2022/02/08 04:00:17;;;;;;;9.55;5.38;;;8.10;99.90;;;;;;2120426;27;20022;-71
2022/02/08 04:01:49;;;;;;;10.50;5.38;;;8.10;99.90;;;;;;2113940;27;20023;-71
2022/02/08 04:02:49;;;;;;;7.18;5.18;;;8.10;99.90;;;;;;2124204;27;20027;-71
2022/02/08 04:04:38;;;;;;;8.98;4.88;;;8.10;99.90;;;;;;2123513;27;20082;-71
2022/02/08 04:06:20;;;;;;;7.68;5.15;;;8.00;99.90;;;;;;2122639;27;20110;-71
2022/02/08 04:07:46;;;;;;;8.50;5.20;;;8.00;99.90;;;;;;2119357;27;20019;-71
2022/02/08 04:08:41;;;;;;;8.40;4.68;;;8.00;99.90;;;;;;2116672;28;20038;-71
2022/02/08 04:09:43;;;;;;;9.50;5.30;;;8.00;99.90;;;;;;2114588;27;20054;-71
2022/02/08 04:10:44;;;;;;;8.65;4.63;;;8.00;99.90;;;;;;2121961;27;20121;-71
2022/02/08 04:12:05;;;;;;;11.10;5.80;;;8.00;99.90;;;;;;2123670;27;20516;-71
2022/02/08 04:14:32;;;;;;;11.23;5.80;;;8.00;99.90;;;;;;2118356;27;20067;-71
2022/02/08 04:16:37;;;;;;;8.80;5.47;;;8.10;99.90;;;;;;2118386;27;20026;-71
2022/02/08 04:19:09;;;;;;;9.85;5.43;;;8.10;99.90;;;;;;2118898;28;20084;-71
2022/02/08 04:33:05;;;;;;;9.60;7.03;;;8.10;99.90;;;;;;2119846;27;20019;-71
2022/02/08 04:40:54;;;;;;;15.07;8.25;;;8.20;99.90;;;;;;2120926;27;20034;-71
2022/02/08 04:44:22;;;;;;;15.85;9.35;;;8.20;99.90;;;;;;2118170;27;20497;-71
2022/02/08 04:45:31;;;;;;;15.48;9.50;;;8.20;99.90;;;;;;2114913;27;20073;-71
2022/02/08 04:46:48;;;;;;;16.08;9.27;;;8.20;99.90;;;;;;2120167;27;20012;-72
2022/02/08 04:48:04;;;;;;;14.80;9.63;;;8.20;99.90;;;;;;2120599;27;20032;-71
2022/02/08 04:49:05;;;;;;;15.90;9.00;;;8.20;99.90;;;;;;2119476;27;20027;-71
2022/02/08 04:50:06;;;;;;;15.20;10.23;;;8.30;99.90;;;;;;2121927;27;20062;-71
2022/02/08 04:51:19;;;;;;;16.58;10.00;;;8.30;99.90;;;;;;2118221;27;20047;-71
2022/02/08 04:52:21;;;;;;;16.48;10.18;;;8.30;99.90;;;;;;2122364;27;20018;-71
2022/02/08 04:53:31;;;;;;;16.13;9.75;;;8.30;99.90;;;;;;2124494;27;20014;-71
2022/02/08 04:54:51;;;;;;;19.00;10.18;;;8.30;99.90;;;;;;2120110;27;20672;-71
2022/02/08 04:56:00;;;;;;;14.52;9.38;;;8.30;99.90;;;;;;2114513;27;20076;-72
2022/02/08 04:58:39;;;;;;;12.02;8.85;;;8.30;99.90;;;;;;2120271;27;20699;-71
2022/02/08 05:01:15;;;;;;;13.13;8.80;;;8.30;99.90;;;;;;2123194;27;20689;-71
2022/02/08 05:29:42;;;;;;;14.18;11.68;;;8.50;99.90;;;;;;2116964;27;20102;-71
2022/02/08 05:34:45;;;;;;;;;;;8.50;99.90;;;;;;2118823;27;20023;-71
2022/02/08 05:44:53;;;;;;;13.40;11.63;;;8.70;99.90;;;;;;2121824;27;20026;-71
2022/02/08 05:46:57;;;;;;;16.92;12.07;;;8.70;99.90;;;;;;2122353;27;20383;-71
2022/02/08 05:48:01;;;;;;;14.38;12.20;;;8.80;99.90;;;;;;2118379;27;20028;-71
2022/02/08 05:49:05;;;;;;;16.23;11.30;;;8.80;99.90;;;;;;2118661;27;20394;-71
2022/02/08 05:50:22;;;;;;;13.52;11.50;;;8.80;99.90;;;;;;2118153;27;20034;-71
2022/02/08 05:51:33;;;;;;;15.85;11.65;;;8.80;99.90;;;;;;2118127;27;20099;-71
2022/02/08 05:53:52;;;;;;;13.45;10.52;;;8.70;99.90;;;;;;2116439;27;19911;-71
2022/02/08 05:54:53;;;;;;;13.43;10.65;;;8.70;99.90;;;;;;2118612;27;20110;-71
2022/02/08 05:55:54;;;;;;;15.88;10.77;;;8.80;99.90;;;;;;2118004;27;20027;-71
2022/02/08 05:56:55;;;;;;;17.00;11.25;;;8.80;99.90;;;;;;2116910;27;20100;-71
2022/02/08 05:57:57;;;;;;;13.30;11.05;;;8.80;99.90;;;;;;2115229;27;20076;-71
2022/02/08 05:58:57;;;;;;;13.02;10.88;;;8.90;99.90;;;;;;2114466;27;20027;-71
2022/02/08 05:59:58;;;;;;;16.25;10.10;;;8.90;99.90;;;;;;2116063;27;20030;-71
2022/02/08 06:00:58;;;;;;;11.98;10.35;;;8.90;99.90;;;;;;2116889;27;20494;-71
2022/02/08 06:01:59;;;;;;;13.00;10.55;;;8.90;99.90;;;;;;2116573;27;20063;-71
2022/02/08 06:03:05;;;;;;;13.82;11.85;;;8.90;99.90;;;;;;2115650;27;20023;-71
2022/02/08 06:04:08;;;;;;;13.13;10.65;;;8.90;99.90;;;;;;2116901;27;20055;-71
2022/02/08 06:05:15;;;;;;;14.60;10.73;;;9.00;99.90;;;;;;2116617;27;20046;-72
2022/02/08 06:06:15;;;;;;;14.95;10.93;;;9.00;99.90;;;;;;2116497;27;20015;-71
2022/02/08 06:07:20;;;;;;;12.45;10.55;;;9.00;99.90;;;;;;2117469;27;20020;-71
2022/02/08 06:08:21;;;;;;;13.35;10.55;;;9.00;99.90;;;;;;2119302;27;20015;-71
2022/02/08 06:09:21;;;;;;;14.70;12.25;;;9.00;99.90;;;;;;2119074;27;20047;-71
2022/02/08 06:10:22;;;;;;;13.32;11.05;;;9.00;99.90;;;;;;2119996;27;20038;-71
2022/02/08 06:11:24;;;;;;;16.00;10.93;;;9.00;99.90;;;;;;2115782;27;20495;-71
2022/02/08 06:12:26;;;;;;;12.70;10.40;;;9.00;99.90;;;;;;2118344;27;20092;-71
2022/02/08 06:13:27;;;;;;;12.63;10.50;;;9.00;99.90;;;;;;2116311;27;20015;-71
2022/02/08 06:14:29;;;;;;;15.57;9.95;;;9.00;99.90;;;;;;2116306;27;20384;-71
2022/02/08 06:15:29;;;;;;;14.60;10.55;;;9.00;99.90;;;;;;2108580;28;20478;-71
2022/02/08 06:16:31;;;;;;;12.55;10.15;;;9.10;99.90;;;;;;2116148;27;20399;-71
2022/02/08 06:17:32;;;;;;;14.23;10.38;;;9.10;99.90;;;;;;2119076;27;20011;-71
2022/02/08 06:18:32;;;;;;;11.90;10.25;;;9.10;99.90;;;;;;2117790;27;20020;-71
2022/02/08 06:19:33;;;;;;;12.48;10.27;;;9.10;99.90;;;;;;2117259;27;20463;-71
2022/02/08 06:20:33;;;;;;;12.45;10.48;;;9.10;99.90;;;;;;2117736;27;20470;-71
2022/02/08 06:21:34;;;;;;;10.85;9.10;;;9.10;99.90;;;;;;2118924;27;20031;-71
2022/02/08 06:22:36;;;;;;;11.70;9.98;;;9.10;99.90;;;;;;2116413;27;20026;-71
2022/02/08 06:23:36;;;;;;;11.80;9.43;;;9.10;99.90;;;;;;2114602;27;20479;-71
2022/02/08 06:24:37;;;;;;;12.05;10.00;;;9.10;99.90;;;;;;2116083;27;20435;-71
2022/02/08 06:25:37;;;;;;;10.55;9.52;;;9.10;99.90;;;;;;2118304;27;20024;-71
2022/02/08 06:26:38;;;;;;;13.88;9.80;;;9.10;99.90;;;;;;2116438;27;20031;-71
2022/02/08 06:27:40;;;;;;;11.23;9.80;;;9.20;99.90;;;;;;2117021;27;20023;-71
2022/02/08 06:28:42;;;;;;;12.77;8.85;;;9.20;99.90;;;;;;2115934;27;20493;-71
2022/02/08 06:29:42;;;;;;;12.38;9.35;;;9.20;99.90;;;;;;2119142;27;20110;-71
2022/02/08 06:30:45;;;;;;;10.85;8.68;;;9.20;99.90;;;;;;2116013;27;20083;-71
2022/02/08 06:31:46;;;;;;;10.48;9.15;;;9.20;99.90;;;;;;2109622;28;20031;-71
2022/02/08 06:32:47;;;;;;;11.63;8.57;;;9.20;99.90;;;;;;2116883;27;20112;-71
2022/02/08 06:33:47;;;;;;;11.60;8.45;;;9.20;99.90;;;;;;2115337;27;20456;-71
2022/02/08 06:34:48;;;;;;;9.18;8.23;;;9.20;99.90;;;;;;2116410;27;20020;-71
2022/02/08 06:35:49;;;;;;;10.32;8.23;;;9.20;99.90;;;;;;2114221;27;20032;-71
2022/02/08 06:36:58;;;;;;;10.48;8.38;;;9.20;99.90;;;;;;2115050;27;20613;-71
2022/02/08 06:38:00;;;;;;;9.27;7.57;;;9.20;99.90;;;;;;2116557;27;20020;-71
2022/02/08 06:39:00;;;;;;;9.98;8.98;;;9.20;99.90;;;;;;2116797;27;20437;-71
2022/02/08 06:40:02;;;;;;;10.35;7.95;;;9.20;99.90;;;;;;2119603;27;20051;-71
2022/02/08 06:41:02;;;;;;;8.38;7.57;;;9.20;99.90;;;;;;2118958;27;20027;-71
2022/02/08 06:42:04;;;;;;;11.27;8.30;;;9.20;99.90;;;;;;2120488;27;20483;-71
2022/02/08 06:43:05;;;;;;;9.32;7.80;;;9.30;99.90;;;;;;2122529;27;20027;-71
2022/02/08 06:44:05;;;;;;;8.98;8.10;;;9.20;99.90;;;;;;2118055;27;20032;-71
2022/02/08 06:45:07;;;;;;;10.63;8.75;;;9.20;99.90;;;;;;2118315;27;20031;-71
2022/02/08 06:46:08;;;;;;;8.82;7.93;;;9.30;99.90;;;;;;2115288;27;20465;-72
2022/02/08 06:47:08;;;;;;;8.82;7.93;;;9.30;99.90;;;;;;2116092;27;20818;-71
2022/02/08 06:48:10;;;;;;;10.18;8.60;;;9.30;99.90;;;;;;2114930;27;20072;-71
2022/02/08 06:49:11;;;;;;;9.70;7.72;;;9.30;99.90;;;;;;2115615;27;20027;-71
2022/02/08 06:50:12;;;;;;;8.57;7.78;;;9.30;99.90;;;;;;2118337;27;20019;-71
2022/02/08 06:51:12;;;;;;;9.15;8.13;;;9.30;99.90;;;;;;2116774;27;20068;-71
2022/02/08 06:52:13;;;;;;;8.75;7.82;;;9.30;99.90;;;;;;2115660;27;20022;-71
2022/02/08 06:53:13;;;;;;;10.20;7.82;;;9.30;99.90;;;;;;2117096;27;20515;-71
2022/02/08 06:54:14;;;;;;;7.85;7.05;;;9.30;99.90;;;;;;2120921;27;20102;-71
2022/02/08 06:55:15;;;;;;;7.72;6.95;;;9.30;99.90;;;;;;2117740;27;20024;-72
2022/02/08 06:56:15;;;;;;;8.60;7.80;;;9.30;99.90;;;;;;2119369;27;20626;-71
2022/02/08 06:57:16;;;;;;;9.60;7.57;;;9.30;99.90;;;;;;2120749;27;20019;-71
2022/02/08 06:58:19;;;;;;;9.25;8.35;;;9.30;99.90;;;;;;2119890;27;20050;-71
2022/02/08 06:59:20;;;;;;;8.98;7.38;;;9.30;99.90;;;;;;2121226;27;20010;-72
2022/02/08 07:00:29;;;;;;;10.10;7.80;;;9.30;99.90;;;;;;2119988;27;20029;-71
2022/02/08 07:01:33;;;;;;;8.90;8.00;;;9.30;99.90;;;;;;2119577;27;20011;-71
2022/02/08 07:02:33;;;;;;;8.50;7.70;;;9.30;99.90;;;;;;2120059;27;20015;-71
2022/02/08 07:03:34;;;;;;;10.50;7.63;;;9.30;99.90;;;;;;2121588;27;20064;-71
2022/02/08 07:04:34;;;;;;;11.73;8.77;;;9.30;99.90;;;;;;2125388;27;20019;-71